This is the latest recevied weather packets stored in our database for station/object NR0Q. If no packets are shown the sender has not sent any weather packets the latest 10 day(s).
| Time | Temp. | Humidity | Pressure | Rain* | Wind** | Luminosity | Snow |
|---|---|---|---|---|---|---|---|
| 1778145302 | 5° C | 92% | 0 hPa | 0 mm | - | - | - |
| 1778143502 | 5° C | 91% | 0 hPa | 0 mm | - | - | - |
| 1778142601 | 5.56° C | 90% | 0 hPa | 0 mm | - | - | - |
| 1778141701 | 5.56° C | 89% | 1020.7 hPa | 0 mm | - | - | - |
| 1778140801 | 5.56° C | 89% | 1020.7 hPa | 0 mm | - | - | - |
| 1778139901 | 6.11° C | 87% | 0 hPa | 0 mm | - | - | - |
| 1778139001 | 6.11° C | 87% | 0 hPa | 0 mm | - | - | - |
| 1778138102 | 6.67° C | 85% | 0 hPa | 0 mm | - | - | - |
| 1778137201 | 6.67° C | 82% | 0 hPa | 0 mm | - | - | - |
| 1778136301 | 7.22° C | 81% | 0 hPa | 0 mm | - | - | - |
| 1778135402 | 8.33° C | 78% | 0 hPa | 0 mm | - | - | - |
| 1778134501 | 8.89° C | 75% | 0 hPa | 0 mm | - | - | - |
| 1778133601 | 10° C | 67% | 0 hPa | 0 mm | - | - | - |
| 1778132701 | 10.56° C | 61% | 0 hPa | 0 mm | - | - | - |
| 1778131802 | 10° C | 61% | 0 hPa | 0 mm | - | - | - |
| 1778130901 | 8.89° C | 66% | 0 hPa | 0 mm | - | - | - |
| 1778130001 | 8.33° C | 81% | 0 hPa | 0 mm | - | - | - |
| 1778129102 | 8.33° C | 80% | 0 hPa | 0 mm | - | - | - |
| 1778128201 | 8.33° C | 77% | 0 hPa | 0 mm | - | - | - |
| 1778127301 | 8.33° C | 77% | 0 hPa | 0 mm | - | - | - |
| 1778126401 | 8.33° C | 78% | 0 hPa | 0 mm | - | - | - |
| 1778125501 | 8.89° C | 77% | 0 hPa | 0 mm | - | - | - |
| 1778123702 | 10° C | 73% | 0 hPa | 0 mm | - | - | - |
| 1778122801 | 10° C | 68% | 1018.6 hPa | 0 mm | - | - | - |
| 1778121901 | 10.56° C | 66% | 1018.6 hPa | 0 mm | - | - | - |
* Rain latest hour (hover to see other rain measurements)
** Current wind speed in m/s (hover to see current wind gust speed)